Time;durP1;ratioP1;P1;durP2;ratioP2;P2;SDS_P1;SDS_P2;PMS_P1;PMS_P2;Temp;Humidity;BMP_temperature;BMP_pressure;BME280_temperature;BME280_humidity;BME280_pressure;Samples;Min_cycle;Max_cycle;Signal;HPM_P1;HPM_P2
2023/07/08 00:02:11;;;;;;;0.98;0.73;;;;;;;;;;5001037;28;20022;-74
2023/07/08 00:04:38;;;;;;;2.80;1.02;;;;;;;;;;4997191;28;20045;-73
2023/07/08 00:07:04;;;;;;;1.02;0.82;;;;;;;;;;5001140;28;20072;-74
2023/07/08 00:09:30;;;;;;;1.48;0.90;;;;;;;;;;5001519;28;20041;-74
2023/07/08 00:11:57;;;;;;;1.95;1.10;;;;;;;;;;5001549;28;20694;-74
2023/07/08 00:14:22;;;;;;;1.50;0.90;;;;;;;;;;4998683;28;20037;-74
2023/07/08 00:16:49;;;;;;;4.00;1.08;;;;;;;;;;5000990;28;20038;-74
2023/07/08 00:19:18;;;;;;;1.90;0.88;;;;;;;;;;5001469;28;20037;-74
2023/07/08 00:21:44;;;;;;;1.90;1.10;;;;;;;;;;5001330;28;20436;-74
2023/07/08 00:24:10;;;;;;;2.45;1.05;;;;;;;;;;5001080;28;20026;-74
2023/07/08 00:26:35;;;;;;;3.22;1.10;;;;;;;;;;5000966;28;20034;-69
2023/07/08 00:29:01;;;;;;;7.97;1.55;;;;;;;;;;4999891;28;20040;-74
2023/07/08 00:31:26;;;;;;;1.98;1.13;;;;;;;;;;5001107;28;20079;-74
2023/07/08 00:33:55;;;;;;;2.65;1.27;;;;;;;;;;5001312;28;20050;-74
2023/07/08 00:36:21;;;;;;;1.52;1.10;;;;;;;;;;4999403;28;20041;-75
2023/07/08 00:38:46;;;;;;;2.25;1.17;;;;;;;;;;5000274;28;20034;-74
2023/07/08 00:41:17;;;;;;;1.98;1.20;;;;;;;;;;4996289;28;20053;-74
2023/07/08 00:43:47;;;;;;;4.50;1.45;;;;;;;;;;5001087;28;20052;-74
2023/07/08 00:46:31;;;;;;;3.23;1.40;;;;;;;;;;4997607;28;20042;-74
2023/07/08 00:49:13;;;;;;;2.00;1.23;;;;;;;;;;5012593;28;20045;-71
2023/07/08 00:51:39;;;;;;;2.47;1.42;;;;;;;;;;5000756;28;20029;-74
2023/07/08 00:54:16;;;;;;;2.67;1.25;;;;;;;;;;5000668;28;20052;-74
2023/07/08 00:56:53;;;;;;;5.25;1.42;;;;;;;;;;5000723;28;20034;-68
2023/07/08 00:59:27;;;;;;;4.47;1.58;;;;;;;;;;5000567;28;20101;-73
2023/07/08 01:01:55;;;;;;;3.03;1.35;;;;;;;;;;5000754;28;20049;-74
2023/07/08 01:04:42;;;;;;;2.40;1.35;;;;;;;;;;4999690;28;20034;-74
2023/07/08 01:07:09;;;;;;;1.90;1.35;;;;;;;;;;4998792;28;20889;-69
2023/07/08 01:09:38;;;;;;;3.53;1.27;;;;;;;;;;5000739;28;20065;-72
2023/07/08 01:12:07;;;;;;;2.95;1.40;;;;;;;;;;4999159;28;20038;-74
2023/07/08 01:14:35;;;;;;;2.38;1.35;;;;;;;;;;4999456;28;20050;-73
2023/07/08 01:17:01;;;;;;;1.58;1.23;;;;;;;;;;5002684;28;20042;-74
2023/07/08 01:19:34;;;;;;;3.25;1.35;;;;;;;;;;5004796;28;20023;-74
2023/07/08 01:22:03;;;;;;;2.70;1.50;;;;;;;;;;5004254;28;20042;-73
2023/07/08 01:24:31;;;;;;;4.28;1.55;;;;;;;;;;5003003;28;20054;-70
2023/07/08 01:26:57;;;;;;;4.13;1.50;;;;;;;;;;5000437;28;20038;-73
2023/07/08 01:29:23;;;;;;;6.50;1.50;;;;;;;;;;5004598;28;20022;-73
2023/07/08 01:31:49;;;;;;;3.70;1.83;;;;;;;;;;5004295;28;20195;-74
2023/07/08 01:34:18;;;;;;;3.17;1.70;;;;;;;;;;5003299;28;20125;-75
2023/07/08 01:36:55;;;;;;;4.78;1.80;;;;;;;;;;5001971;28;20076;-71
2023/07/08 01:39:23;;;;;;;2.13;1.27;;;;;;;;;;5002828;28;20440;-75
2023/07/08 01:41:49;;;;;;;2.13;1.58;;;;;;;;;;5004105;28;20116;-72
2023/07/08 01:44:30;;;;;;;5.50;1.45;;;;;;;;;;5004331;28;20344;-69
2023/07/08 01:47:02;;;;;;;3.65;1.50;;;;;;;;;;5003925;28;20081;-74
2023/07/08 01:49:28;;;;;;;2.88;1.52;;;;;;;;;;5004265;28;20030;-74
2023/07/08 01:51:53;;;;;;;3.67;1.63;;;;;;;;;;5002797;28;20027;-74
2023/07/08 01:54:18;;;;;;;2.50;1.20;;;;;;;;;;5004186;28;20261;-74
2023/07/08 01:56:44;;;;;;;4.28;1.50;;;;;;;;;;5003756;28;20314;-74
2023/07/08 01:59:09;;;;;;;3.70;1.52;;;;;;;;;;5004019;28;20327;-74
2023/07/08 02:01:34;;;;;;;2.80;1.63;;;;;;;;;;5003873;28;20061;-74
2023/07/08 02:04:00;;;;;;;4.78;1.38;;;;;;;;;;5002242;28;20046;-74
2023/07/08 02:06:25;;;;;;;2.58;1.58;;;;;;;;;;5003995;28;20072;-74
2023/07/08 02:08:51;;;;;;;2.00;1.33;;;;;;;;;;5002461;28;20034;-74
2023/07/08 02:11:17;;;;;;;5.32;1.80;;;;;;;;;;5002087;28;20337;-71
2023/07/08 02:13:42;;;;;;;3.33;1.80;;;;;;;;;;5003006;28;20026;-73
2023/07/08 02:16:08;;;;;;;3.55;1.63;;;;;;;;;;5003452;28;20053;-69
2023/07/08 02:18:33;;;;;;;2.45;1.13;;;;;;;;;;5001935;28;20026;-74
2023/07/08 02:20:58;;;;;;;5.18;1.60;;;;;;;;;;4999194;28;20038;-74
2023/07/08 02:23:25;;;;;;;3.97;1.90;;;;;;;;;;5002197;28;20022;-74
2023/07/08 02:25:55;;;;;;;3.20;1.70;;;;;;;;;;5003537;28;20049;-71
2023/07/08 02:28:21;;;;;;;2.70;1.23;;;;;;;;;;5001585;28;20534;-74
2023/07/08 02:30:46;;;;;;;3.28;1.45;;;;;;;;;;5000913;28;20034;-74
2023/07/08 02:33:14;;;;;;;6.93;2.38;;;;;;;;;;5002925;28;20352;-74
2023/07/08 02:35:40;;;;;;;2.95;1.50;;;;;;;;;;5003390;28;20034;-67
2023/07/08 02:38:05;;;;;;;2.22;1.23;;;;;;;;;;5002945;28;20030;-75
2023/07/08 02:40:31;;;;;;;3.78;1.70;;;;;;;;;;5002724;28;20076;-74
2023/07/08 02:42:56;;;;;;;3.58;1.58;;;;;;;;;;5003158;28;20250;-74
2023/07/08 02:45:21;;;;;;;2.80;1.30;;;;;;;;;;5003195;28;20011;-75
2023/07/08 02:47:47;;;;;;;5.00;1.73;;;;;;;;;;5002828;28;20297;-73
2023/07/08 02:50:13;;;;;;;4.38;1.60;;;;;;;;;;5001303;28;20018;-74
2023/07/08 02:52:39;;;;;;;4.20;1.38;;;;;;;;;;5002492;28;20041;-74
2023/07/08 02:55:05;;;;;;;6.05;1.45;;;;;;;;;;5001825;28;20146;-74
2023/07/08 02:57:30;;;;;;;3.47;1.48;;;;;;;;;;5002822;28;20466;-74
2023/07/08 02:59:55;;;;;;;3.13;1.48;;;;;;;;;;5002263;28;20049;-73
2023/07/08 03:02:22;;;;;;;6.18;1.70;;;;;;;;;;5002860;28;20030;-74
2023/07/08 03:04:49;;;;;;;3.70;1.48;;;;;;;;;;4999636;28;20165;-73
2023/07/08 03:07:16;;;;;;;4.13;1.70;;;;;;;;;;5000542;28;20039;-74
2023/07/08 03:09:42;;;;;;;2.00;1.25;;;;;;;;;;5001059;28;20569;-75
2023/07/08 03:12:09;;;;;;;6.78;1.70;;;;;;;;;;5000910;28;20038;-71
2023/07/08 03:14:34;;;;;;;3.15;1.60;;;;;;;;;;5002718;28;20278;-70
2023/07/08 03:17:00;;;;;;;4.15;1.50;;;;;;;;;;5002537;28;20026;-74
2023/07/08 03:19:25;;;;;;;2.58;1.50;;;;;;;;;;5001746;28;20200;-74
2023/07/08 03:21:51;;;;;;;3.45;1.63;;;;;;;;;;5002178;28;20076;-73
2023/07/08 03:24:18;;;;;;;2.08;1.27;;;;;;;;;;5000609;28;20031;-75
2023/07/08 03:26:44;;;;;;;4.40;1.88;;;;;;;;;;5002322;28;20033;-75
2023/07/08 03:29:14;;;;;;;3.38;1.80;;;;;;;;;;5002121;28;20026;-74
2023/07/08 03:31:40;;;;;;;;;;;;;;;;;;5001875;28;20046;-74
2023/07/08 03:34:07;;;;;;;3.33;1.30;;;;;;;;;;5001999;28;19920;-74
2023/07/08 03:36:32;;;;;;;2.35;1.40;;;;;;;;;;5001347;28;20102;-74
2023/07/08 03:38:58;;;;;;;3.78;1.48;;;;;;;;;;4999539;28;20363;-74
2023/07/08 03:41:24;;;;;;;3.97;1.40;;;;;;;;;;5000973;28;20262;-75
2023/07/08 03:43:52;;;;;;;4.63;1.50;;;;;;;;;;5001913;28;20314;-72
2023/07/08 03:46:20;;;;;;;2.38;1.33;;;;;;;;;;5000456;28;20049;-74
2023/07/08 03:48:47;;;;;;;4.03;1.20;;;;;;;;;;4999778;28;20057;-74
2023/07/08 03:51:24;;;;;;;3.22;1.50;;;;;;;;;;5002125;28;20035;-74
2023/07/08 03:53:51;;;;;;;3.60;1.77;;;;;;;;;;5000224;28;20022;-74
2023/07/08 03:56:16;;;;;;;3.35;1.33;;;;;;;;;;5001886;28;20041;-75
2023/07/08 03:58:42;;;;;;;2.45;1.50;;;;;;;;;;5001226;28;20089;-75
2023/07/08 04:01:15;;;;;;;3.15;1.50;;;;;;;;;;4999998;28;20110;-74
2023/07/08 04:03:41;;;;;;;3.45;1.40;;;;;;;;;;4999957;28;20052;-75
2023/07/08 04:06:06;;;;;;;3.70;1.38;;;;;;;;;;5000413;28;20075;-72
2023/07/08 04:08:31;;;;;;;2.30;1.25;;;;;;;;;;4998845;28;20357;-74
2023/07/08 04:10:57;;;;;;;4.13;1.63;;;;;;;;;;5001328;28;20049;-74
2023/07/08 04:13:22;;;;;;;2.85;1.40;;;;;;;;;;4999147;28;20266;-74
2023/07/08 04:15:54;;;;;;;2.97;1.42;;;;;;;;;;4998959;28;20041;-74
2023/07/08 04:18:19;;;;;;;3.35;1.60;;;;;;;;;;5000438;28;20033;-74
2023/07/08 04:20:52;;;;;;;2.70;1.45;;;;;;;;;;5001367;28;20030;-74
2023/07/08 04:23:18;;;;;;;2.40;1.50;;;;;;;;;;4998931;28;20042;-74
2023/07/08 04:25:44;;;;;;;3.13;1.50;;;;;;;;;;4999174;28;20034;-74
2023/07/08 04:28:09;;;;;;;5.53;1.30;;;;;;;;;;5000521;28;20061;-74
2023/07/08 04:30:40;;;;;;;2.67;1.35;;;;;;;;;;5001438;28;20026;-75
2023/07/08 04:33:09;;;;;;;3.35;1.30;;;;;;;;;;5000858;28;20297;-75
2023/07/08 04:35:38;;;;;;;3.53;1.60;;;;;;;;;;5000726;28;20029;-74
2023/07/08 04:38:11;;;;;;;3.28;1.58;;;;;;;;;;4999093;28;20022;-75
2023/07/08 04:40:39;;;;;;;3.65;1.50;;;;;;;;;;4998930;28;20122;-74
2023/07/08 04:43:06;;;;;;;2.92;1.52;;;;;;;;;;4998874;28;20030;-74
2023/07/08 04:45:31;;;;;;;5.18;2.05;;;;;;;;;;5001234;28;20056;-74
2023/07/08 04:47:57;;;;;;;4.63;1.58;;;;;;;;;;5000700;28;20322;-75
2023/07/08 04:50:22;;;;;;;3.15;1.55;;;;;;;;;;5000433;28;20033;-74
2023/07/08 04:52:49;;;;;;;2.53;1.55;;;;;;;;;;5000180;28;20067;-74
2023/07/08 04:55:15;;;;;;;3.13;1.58;;;;;;;;;;5000651;28;20061;-71
2023/07/08 04:57:41;;;;;;;4.72;1.52;;;;;;;;;;5000043;28;20226;-75
2023/07/08 05:00:10;;;;;;;3.42;1.80;;;;;;;;;;4997517;28;20068;-72
2023/07/08 05:02:35;;;;;;;4.75;1.77;;;;;;;;;;4998646;28;20341;-74
2023/07/08 05:05:01;;;;;;;2.58;1.50;;;;;;;;;;5000783;28;20022;-74
2023/07/08 05:07:26;;;;;;;3.78;1.60;;;;;;;;;;4997844;28;20054;-72
2023/07/08 05:09:52;;;;;;;3.78;1.80;;;;;;;;;;5000628;28;20118;-74
2023/07/08 05:12:17;;;;;;;6.65;1.67;;;;;;;;;;5000609;28;20242;-74
2023/07/08 05:14:43;;;;;;;3.20;1.65;;;;;;;;;;5000627;28;20323;-70
2023/07/08 05:17:08;;;;;;;3.47;1.92;;;;;;;;;;4997034;28;20026;-72
2023/07/08 05:19:34;;;;;;;3.88;1.95;;;;;;;;;;4999342;28;20022;-74
2023/07/08 05:21:59;;;;;;;6.35;1.70;;;;;;;;;;5000394;28;20033;-74
2023/07/08 05:24:25;;;;;;;3.40;1.70;;;;;;;;;;4998857;28;20025;-69
2023/07/08 05:26:50;;;;;;;7.32;2.20;;;;;;;;;;5000586;28;20022;-75
2023/07/08 05:29:15;;;;;;;4.15;2.08;;;;;;;;;;5000260;28;20029;-76
2023/07/08 05:31:41;;;;;;;6.60;1.90;;;;;;;;;;5000417;28;20019;-73
2023/07/08 05:34:06;;;;;;;4.40;1.90;;;;;;;;;;5000235;28;20068;-74
2023/07/08 05:36:31;;;;;;;5.97;1.90;;;;;;;;;;5000605;28;20030;-69
2023/07/08 05:38:57;;;;;;;6.78;2.00;;;;;;;;;;4999250;28;20022;-73
2023/07/08 05:41:22;;;;;;;4.38;1.70;;;;;;;;;;4999914;28;20023;-74
2023/07/08 05:43:48;;;;;;;2.45;1.58;;;;;;;;;;5000043;28;20030;-71
2023/07/08 05:46:13;;;;;;;6.25;1.70;;;;;;;;;;5000391;28;20033;-74
2023/07/08 05:48:39;;;;;;;3.28;1.63;;;;;;;;;;5000137;28;20045;-73
2023/07/08 05:51:05;;;;;;;3.90;1.67;;;;;;;;;;5000453;28;20018;-74
2023/07/08 05:53:30;;;;;;;3.20;2.03;;;;;;;;;;4999972;28;20058;-73
2023/07/08 05:55:56;;;;;;;7.15;2.00;;;;;;;;;;5000397;28;20023;-74
2023/07/08 05:58:22;;;;;;;5.10;2.20;;;;;;;;;;4999506;28;20366;-74
2023/07/08 06:00:47;;;;;;;6.22;2.20;;;;;;;;;;4999101;28;20030;-74
2023/07/08 06:03:13;;;;;;;6.50;1.90;;;;;;;;;;5002633;28;20101;-75
2023/07/08 06:05:38;;;;;;;4.15;1.98;;;;;;;;;;5003733;28;20042;-74
2023/07/08 06:08:06;;;;;;;4.20;2.05;;;;;;;;;;5000243;28;20037;-75
2023/07/08 06:10:31;;;;;;;2.70;1.70;;;;;;;;;;5003586;28;20018;-74
2023/07/08 06:12:57;;;;;;;3.03;1.92;;;;;;;;;;5003845;28;20113;-74
2023/07/08 06:15:22;;;;;;;3.22;1.77;;;;;;;;;;4998117;28;20054;-73
2023/07/08 06:17:48;;;;;;;6.90;1.75;;;;;;;;;;5001171;28;20034;-73
2023/07/08 06:20:13;;;;;;;4.25;1.58;;;;;;;;;;5003432;28;20022;-73
2023/07/08 06:22:38;;;;;;;4.22;1.98;;;;;;;;;;5003360;28;20022;-75
2023/07/08 06:25:04;;;;;;;2.85;1.58;;;;;;;;;;4997739;28;20084;-71
2023/07/08 06:27:30;;;;;;;3.72;1.92;;;;;;;;;;5003337;28;20034;-74
2023/07/08 06:29:55;;;;;;;3.65;1.98;;;;;;;;;;5000571;28;20036;-74
2023/07/08 06:32:20;;;;;;;5.40;1.98;;;;;;;;;;5003519;28;20081;-74
2023/07/08 06:34:46;;;;;;;3.67;1.65;;;;;;;;;;5000829;28;20091;-74
2023/07/08 06:37:11;;;;;;;5.35;1.60;;;;;;;;;;5000520;28;20045;-69
2023/07/08 06:39:37;;;;;;;3.78;1.88;;;;;;;;;;5001488;28;20121;-73
2023/07/08 06:42:02;;;;;;;5.50;1.67;;;;;;;;;;5003330;28;20034;-74
2023/07/08 06:44:28;;;;;;;2.88;1.83;;;;;;;;;;5002877;28;20060;-74
2023/07/08 06:46:53;;;;;;;4.72;2.10;;;;;;;;;;5001561;28;20038;-73
2023/07/08 06:49:18;;;;;;;3.78;1.83;;;;;;;;;;5002987;28;20034;-71
2023/07/08 06:51:45;;;;;;;4.53;1.92;;;;;;;;;;5003082;28;20373;-68
2023/07/08 06:54:11;;;;;;;4.88;2.10;;;;;;;;;;5001025;28;20042;-71
2023/07/08 06:56:39;;;;;;;5.82;2.30;;;;;;;;;;5002907;28;20141;-75
2023/07/08 06:59:04;;;;;;;5.47;2.00;;;;;;;;;;5002753;28;20061;-73
2023/07/08 07:01:30;;;;;;;3.00;1.70;;;;;;;;;;5001928;28;20026;-69
2023/07/08 07:03:55;;;;;;;4.10;1.80;;;;;;;;;;5001092;28;20038;-73
2023/07/08 07:06:21;;;;;;;3.70;1.65;;;;;;;;;;5001878;28;20030;-75
2023/07/08 07:08:46;;;;;;;4.72;2.05;;;;;;;;;;5002462;28;20028;-73
2023/07/08 07:11:12;;;;;;;6.53;2.15;;;;;;;;;;5001171;28;20224;-75
2023/07/08 07:13:37;;;;;;;3.45;1.80;;;;;;;;;;5001393;28;20342;-75
2023/07/08 07:16:03;;;;;;;3.38;1.60;;;;;;;;;;5001742;28;20026;-74
2023/07/08 07:18:28;;;;;;;4.15;1.50;;;;;;;;;;5002589;28;20034;-74
2023/07/08 07:20:54;;;;;;;3.67;1.65;;;;;;;;;;5002299;28;20034;-73
2023/07/08 07:23:20;;;;;;;4.95;1.92;;;;;;;;;;5000889;28;20149;-75
2023/07/08 07:25:49;;;;;;;4.75;1.80;;;;;;;;;;5002395;28;20034;-74
2023/07/08 07:28:16;;;;;;;4.25;1.30;;;;;;;;;;5002057;28;20080;-75
2023/07/08 07:30:44;;;;;;;2.70;1.75;;;;;;;;;;5002233;28;20026;-74
2023/07/08 07:33:11;;;;;;;3.08;1.77;;;;;;;;;;5001697;28;20113;-74
2023/07/08 07:35:42;;;;;;;4.65;1.88;;;;;;;;;;5017194;28;20029;-74
2023/07/08 07:38:07;;;;;;;2.55;1.60;;;;;;;;;;5000446;28;20289;-74
2023/07/08 07:40:33;;;;;;;3.00;1.67;;;;;;;;;;5002015;28;20028;-75
2023/07/08 07:42:58;;;;;;;4.45;1.75;;;;;;;;;;5002229;28;20026;-73
2023/07/08 07:45:23;;;;;;;3.30;1.70;;;;;;;;;;5001511;28;20535;-71
2023/07/08 07:47:49;;;;;;;7.07;1.95;;;;;;;;;;5000382;28;20022;-75
2023/07/08 07:50:14;;;;;;;5.47;2.17;;;;;;;;;;5001833;28;20038;-74
2023/07/08 07:52:40;;;;;;;3.45;1.77;;;;;;;;;;5001406;28;20314;-74
2023/07/08 07:55:07;;;;;;;2.78;1.50;;;;;;;;;;5001716;28;20054;-74
2023/07/08 07:57:32;;;;;;;2.33;1.63;;;;;;;;;;4998699;28;20086;-75
2023/07/08 07:59:58;;;;;;;3.72;1.60;;;;;;;;;;5001380;28;20034;-75
2023/07/08 08:02:23;;;;;;;4.63;1.77;;;;;;;;;;5000839;28;20029;-74
2023/07/08 08:04:48;;;;;;;3.45;1.85;;;;;;;;;;5000082;28;20048;-74
2023/07/08 08:07:14;;;;;;;4.95;1.98;;;;;;;;;;5001346;28;20072;-74
2023/07/08 08:09:39;;;;;;;4.85;1.70;;;;;;;;;;4997606;28;20022;-75
2023/07/08 08:12:08;;;;;;;3.75;2.00;;;;;;;;;;5000677;28;20022;-74
2023/07/08 08:14:33;;;;;;;2.92;1.52;;;;;;;;;;5001240;28;20379;-74
2023/07/08 08:16:59;;;;;;;4.55;1.80;;;;;;;;;;4997828;28;20450;-75
2023/07/08 08:19:24;;;;;;;4.93;2.05;;;;;;;;;;5000941;28;20105;-69
2023/07/08 08:21:49;;;;;;;3.92;1.73;;;;;;;;;;5001023;28;20041;-74
2023/07/08 08:24:15;;;;;;;5.55;1.98;;;;;;;;;;5001358;28;20040;-74
2023/07/08 08:26:40;;;;;;;4.55;1.80;;;;;;;;;;5001020;28;20037;-74
2023/07/08 08:29:06;;;;;;;5.30;1.80;;;;;;;;;;5001229;28;20303;-74
2023/07/08 08:31:31;;;;;;;4.30;1.67;;;;;;;;;;5001048;28;20033;-75
2023/07/08 08:33:57;;;;;;;3.58;1.90;;;;;;;;;;5000971;28;20274;-74
2023/07/08 08:36:22;;;;;;;6.22;2.10;;;;;;;;;;5001219;28;20029;-72
2023/07/08 08:38:49;;;;;;;4.07;2.00;;;;;;;;;;5000907;28;20068;-75
2023/07/08 08:41:18;;;;;;;3.78;1.92;;;;;;;;;;4998280;28;20030;-74
2023/07/08 08:43:45;;;;;;;2.95;1.90;;;;;;;;;;4998229;28;20022;-74
2023/07/08 08:46:36;;;;;;;6.75;1.60;;;;;;;;;;5000903;28;20057;-74
2023/07/08 08:49:20;;;;;;;3.92;1.85;;;;;;;;;;4996700;28;20030;-74
2023/07/08 08:51:47;;;;;;;6.00;1.90;;;;;;;;;;4998638;28;20117;-73
2023/07/08 08:54:12;;;;;;;4.32;1.60;;;;;;;;;;4996307;28;20022;-74
2023/07/08 08:56:50;;;;;;;3.78;1.67;;;;;;;;;;4999757;28;20040;-74
2023/07/08 08:59:24;;;;;;;3.97;1.80;;;;;;;;;;5013828;28;20425;-74
2023/07/08 09:01:50;;;;;;;4.43;1.73;;;;;;;;;;5000581;28;20029;-75
2023/07/08 09:04:22;;;;;;;6.93;1.80;;;;;;;;;;5000554;28;20385;-75
2023/07/08 09:06:47;;;;;;;4.30;1.80;;;;;;;;;;5000257;28;20345;-75
2023/07/08 09:09:19;;;;;;;4.15;2.00;;;;;;;;;;5000907;28;20026;-74
2023/07/08 09:11:56;;;;;;;6.68;2.13;;;;;;;;;;5000409;28;20027;-74
2023/07/08 09:14:26;;;;;;;4.45;1.73;;;;;;;;;;4999585;28;20022;-75
2023/07/08 09:17:20;;;;;;;3.67;1.80;;;;;;;;;;4999325;28;20080;-72
2023/07/08 09:19:57;;;;;;;8.60;2.08;;;;;;;;;;5000613;28;20061;-74
2023/07/08 09:22:36;;;;;;;4.78;1.67;;;;;;;;;;4997764;28;20090;-75
2023/07/08 09:25:23;;;;;;;4.28;1.90;;;;;;;;;;5000734;28;20033;-74
2023/07/08 09:27:49;;;;;;;4.95;1.92;;;;;;;;;;4999231;28;20389;-74
2023/07/08 09:30:17;;;;;;;4.68;1.80;;;;;;;;;;4999379;28;20098;-74
2023/07/08 09:32:42;;;;;;;3.30;1.63;;;;;;;;;;5000316;28;20034;-72
2023/07/08 09:35:16;;;;;;;4.88;1.80;;;;;;;;;;5000255;28;20033;-74
2023/07/08 09:37:46;;;;;;;7.30;2.13;;;;;;;;;;5001677;28;20068;-73
2023/07/08 09:40:28;;;;;;;3.47;1.77;;;;;;;;;;5004395;28;20056;-74
2023/07/08 09:43:10;;;;;;;3.50;1.73;;;;;;;;;;5003227;28;20344;-75
2023/07/08 09:45:45;;;;;;;3.10;1.60;;;;;;;;;;5002112;28;20030;-74
2023/07/08 09:48:24;;;;;;;5.93;2.38;;;;;;;;;;5002683;28;20030;-73
2023/07/08 09:50:53;;;;;;;4.63;1.73;;;;;;;;;;5003106;28;20081;-71
2023/07/08 09:53:19;;;;;;;4.28;1.73;;;;;;;;;;5002798;28;20030;-74
2023/07/08 09:55:45;;;;;;;4.50;2.13;;;;;;;;;;5003447;28;20014;-74
2023/07/08 09:58:32;;;;;;;6.07;2.50;;;;;;;;;;5003958;28;20308;-69
2023/07/08 10:01:01;;;;;;;8.00;2.28;;;;;;;;;;5004042;28;20030;-73
2023/07/08 10:03:35;;;;;;;4.82;2.03;;;;;;;;;;5003916;28;20033;-74
2023/07/08 10:06:10;;;;;;;6.75;2.13;;;;;;;;;;5003909;28;20318;-74
2023/07/08 10:08:44;;;;;;;3.28;1.98;;;;;;;;;;5003508;28;20030;-74
2023/07/08 10:11:29;;;;;;;5.15;2.00;;;;;;;;;;5002590;28;20081;-75
2023/07/08 10:14:11;;;;;;;7.40;1.95;;;;;;;;;;5003767;28;20046;-74
2023/07/08 10:16:37;;;;;;;4.13;1.88;;;;;;;;;;5000943;28;20299;-74
2023/07/08 10:19:11;;;;;;;4.82;2.10;;;;;;;;;;5002712;28;20053;-73
2023/07/08 10:22:07;;;;;;;3.55;1.77;;;;;;;;;;5002530;28;20044;-74
2023/07/08 10:25:00;;;;;;;5.20;1.80;;;;;;;;;;5005407;28;20129;-73
2023/07/08 10:27:53;;;;;;;3.35;1.55;;;;;;;;;;5002437;28;20042;-71
2023/07/08 10:30:22;;;;;;;4.85;2.00;;;;;;;;;;5003543;28;20108;-75
2023/07/08 10:32:59;;;;;;;5.72;1.90;;;;;;;;;;5000084;28;20203;-74
2023/07/08 10:35:33;;;;;;;4.13;1.75;;;;;;;;;;5003364;28;20034;-75
2023/07/08 10:38:28;;;;;;;4.05;1.65;;;;;;;;;;5003029;28;20033;-73
2023/07/08 10:40:59;;;;;;;4.68;1.70;;;;;;;;;;5015537;28;20034;-74
2023/07/08 10:44:15;;;;;;;4.82;2.03;;;;;;;;;;5003249;28;20101;-73
2023/07/08 10:46:59;;;;;;;3.85;1.85;;;;;;;;;;5014048;28;20034;-74
2023/07/08 10:49:34;;;;;;;3.83;1.67;;;;;;;;;;4999255;28;20034;-69
2023/07/08 10:52:20;;;;;;;3.85;1.80;;;;;;;;;;5002556;28;20038;-75
2023/07/08 10:54:54;;;;;;;7.35;1.92;;;;;;;;;;5001802;28;20038;-75
2023/07/08 10:57:41;;;;;;;4.90;1.90;;;;;;;;;;5002998;28;20030;-75
2023/07/08 11:00:22;;;;;;;3.70;1.70;;;;;;;;;;5001585;28;20026;-74
2023/07/08 11:02:53;;;;;;;3.08;1.70;;;;;;;;;;5001391;28;20027;-73
2023/07/08 11:05:36;;;;;;;2.15;1.52;;;;;;;;;;5001861;28;20030;-74
2023/07/08 11:08:14;;;;;;;3.53;1.80;;;;;;;;;;5001562;28;20026;-75
2023/07/08 11:11:22;;;;;;;3.13;1.63;;;;;;;;;;5001483;28;20041;-74
2023/07/08 11:13:53;;;;;;;3.88;1.60;;;;;;;;;;5004511;28;20124;-74
2023/07/08 11:16:31;;;;;;;2.47;1.58;;;;;;;;;;4997759;28;20038;-75
2023/07/08 11:19:04;;;;;;;5.15;1.75;;;;;;;;;;5001966;28;20068;-75
2023/07/08 11:21:45;;;;;;;6.05;1.95;;;;;;;;;;5002210;28;20038;-75
2023/07/08 11:24:21;;;;;;;4.30;1.85;;;;;;;;;;5002071;28;20034;-75
2023/07/08 11:26:55;;;;;;;3.40;1.58;;;;;;;;;;5001432;28;20032;-75
2023/07/08 11:29:25;;;;;;;3.85;1.88;;;;;;;;;;4999767;28;20033;-75
2023/07/08 11:31:53;;;;;;;4.95;1.83;;;;;;;;;;5000457;28;20057;-74
2023/07/08 11:34:19;;;;;;;2.88;1.70;;;;;;;;;;5001117;28;20038;-75
2023/07/08 11:36:47;;;;;;;4.95;1.85;;;;;;;;;;5002049;28;20015;-75
2023/07/08 11:39:41;;;;;;;3.78;2.10;;;;;;;;;;5001538;28;20026;-74
2023/07/08 11:42:40;;;;;;;3.67;1.70;;;;;;;;;;5007809;28;20037;-75
2023/07/08 11:45:24;;;;;;;5.60;1.60;;;;;;;;;;5002145;28;20082;-73
2023/07/08 11:47:50;;;;;;;6.32;1.90;;;;;;;;;;5002060;28;20034;-75
2023/07/08 11:50:31;;;;;;;3.30;1.80;;;;;;;;;;4999319;28;20034;-75
2023/07/08 11:53:03;;;;;;;5.53;2.00;;;;;;;;;;5001457;28;20056;-75
2023/07/08 11:55:46;;;;;;;3.67;1.83;;;;;;;;;;5002061;28;20041;-74
2023/07/08 11:58:22;;;;;;;3.55;1.60;;;;;;;;;;5001696;28;20080;-75
2023/07/08 12:01:09;;;;;;;2.88;1.50;;;;;;;;;;4998147;28;20027;-74
2023/07/08 12:03:34;;;;;;;3.45;1.90;;;;;;;;;;5001503;28;20350;-74
2023/07/08 12:06:05;;;;;;;3.58;1.90;;;;;;;;;;4998560;28;20030;-75
2023/07/08 12:08:37;;;;;;;3.72;1.77;;;;;;;;;;5001295;28;20030;-75
2023/07/08 12:11:03;;;;;;;4.47;1.80;;;;;;;;;;5001618;28;20034;-75
2023/07/08 12:13:30;;;;;;;4.20;1.80;;;;;;;;;;4995194;28;20194;-75
2023/07/08 12:15:55;;;;;;;3.40;1.80;;;;;;;;;;5001515;28;20030;-74
2023/07/08 12:18:34;;;;;;;3.63;1.75;;;;;;;;;;5001282;28;20340;-76
2023/07/08 12:21:03;;;;;;;5.57;1.65;;;;;;;;;;4999146;28;20026;-74
2023/07/08 12:23:29;;;;;;;5.57;1.70;;;;;;;;;;5000935;28;20084;-74
2023/07/08 12:25:57;;;;;;;2.70;1.55;;;;;;;;;;5001561;28;20049;-74
2023/07/08 12:28:24;;;;;;;3.35;1.55;;;;;;;;;;4997327;28;20066;-74
2023/07/08 12:30:50;;;;;;;7.65;1.90;;;;;;;;;;5000650;28;20050;-75
2023/07/08 12:33:30;;;;;;;4.93;1.88;;;;;;;;;;4999138;28;20072;-74
2023/07/08 12:35:56;;;;;;;3.75;1.90;;;;;;;;;;5000360;28;20045;-72
2023/07/08 12:38:28;;;;;;;4.82;2.10;;;;;;;;;;5000827;28;20378;-75
2023/07/08 12:40:56;;;;;;;4.90;1.80;;;;;;;;;;4999363;28;20094;-75
2023/07/08 12:43:22;;;;;;;3.10;1.70;;;;;;;;;;4998013;28;20098;-70
2023/07/08 12:45:47;;;;;;;3.15;1.67;;;;;;;;;;5001170;28;20033;-75
2023/07/08 12:48:12;;;;;;;2.40;1.52;;;;;;;;;;5001041;28;20025;-75
2023/07/08 12:50:38;;;;;;;4.05;1.70;;;;;;;;;;4998221;28;20030;-75
2023/07/08 12:53:09;;;;;;;3.35;1.55;;;;;;;;;;4997322;28;20262;-75
2023/07/08 12:55:44;;;;;;;3.78;1.83;;;;;;;;;;4997248;28;20034;-75
2023/07/08 12:58:23;;;;;;;3.63;1.92;;;;;;;;;;5000204;28;20035;-74
2023/07/08 13:00:48;;;;;;;5.40;2.10;;;;;;;;;;5000911;28;20057;-75
2023/07/08 13:03:18;;;;;;;3.97;1.77;;;;;;;;;;5000070;28;20034;-75
2023/07/08 13:05:44;;;;;;;4.13;1.55;;;;;;;;;;5000807;28;20506;-74
2023/07/08 13:08:13;;;;;;;4.18;1.73;;;;;;;;;;4998437;28;20616;-74
2023/07/08 13:10:39;;;;;;;2.25;1.58;;;;;;;;;;4999961;28;20234;-75
2023/07/08 13:13:08;;;;;;;8.60;1.80;;;;;;;;;;4999791;28;20096;-75
2023/07/08 13:15:39;;;;;;;3.85;1.98;;;;;;;;;;5000072;28;20062;-76
2023/07/08 13:18:10;;;;;;;7.30;2.17;;;;;;;;;;5000663;28;20022;-72
2023/07/08 13:20:35;;;;;;;3.60;1.90;;;;;;;;;;5000665;28;20026;-75
2023/07/08 13:23:02;;;;;;;2.35;1.60;;;;;;;;;;5000305;28;20038;-74
2023/07/08 13:25:30;;;;;;;3.17;1.55;;;;;;;;;;5000623;28;20085;-74
2023/07/08 13:27:58;;;;;;;2.85;1.50;;;;;;;;;;4999684;28;20038;-74
2023/07/08 13:30:27;;;;;;;3.92;1.77;;;;;;;;;;5000377;28;20030;-72
2023/07/08 13:32:57;;;;;;;3.03;1.42;;;;;;;;;;4998814;28;20233;-75
2023/07/08 13:35:27;;;;;;;3.22;1.75;;;;;;;;;;4995338;28;20026;-71
2023/07/08 13:37:55;;;;;;;4.60;1.70;;;;;;;;;;4999284;28;20042;-74
2023/07/08 13:40:20;;;;;;;4.68;1.77;;;;;;;;;;4997979;28;20086;-71
2023/07/08 13:42:51;;;;;;;3.83;1.67;;;;;;;;;;5000372;28;20026;-74
2023/07/08 13:45:22;;;;;;;4.85;1.52;;;;;;;;;;4998623;28;20391;-74
2023/07/08 13:48:06;;;;;;;5.13;1.88;;;;;;;;;;4999169;28;20370;-74
2023/07/08 13:50:42;;;;;;;2.50;1.60;;;;;;;;;;4999787;28;20078;-74
2023/07/08 13:53:18;;;;;;;3.40;1.60;;;;;;;;;;5000055;28;20030;-74
2023/07/08 13:55:43;;;;;;;3.33;1.73;;;;;;;;;;5000209;28;20026;-75
2023/07/08 13:58:16;;;;;;;2.55;1.65;;;;;;;;;;5000478;28;20125;-75
2023/07/08 14:00:41;;;;;;;4.75;1.55;;;;;;;;;;5000237;28;20050;-68
2023/07/08 14:03:15;;;;;;;4.32;1.70;;;;;;;;;;4995285;28;20023;-75
2023/07/08 14:05:41;;;;;;;6.07;1.45;;;;;;;;;;4998199;28;20090;-75
2023/07/08 14:08:13;;;;;;;4.63;1.70;;;;;;;;;;4998114;28;20073;-75
2023/07/08 14:10:38;;;;;;;5.55;1.73;;;;;;;;;;5000250;28;20029;-75
2023/07/08 14:13:04;;;;;;;2.67;1.60;;;;;;;;;;4999187;28;20038;-74
2023/07/08 14:15:29;;;;;;;3.20;1.52;;;;;;;;;;4998335;28;20490;-75
2023/07/08 14:17:54;;;;;;;3.67;1.55;;;;;;;;;;4998796;28;20031;-73
2023/07/08 14:20:23;;;;;;;3.45;1.58;;;;;;;;;;4999649;28;20057;-75
2023/07/08 14:22:50;;;;;;;3.25;1.52;;;;;;;;;;4999982;28;20034;-75
2023/07/08 14:25:18;;;;;;;3.63;1.90;;;;;;;;;;5002674;28;20026;-75
2023/07/08 14:27:43;;;;;;;2.90;1.70;;;;;;;;;;5002646;28;20034;-75
2023/07/08 14:30:10;;;;;;;3.60;1.63;;;;;;;;;;5001940;28;20056;-75
2023/07/08 14:32:36;;;;;;;2.90;1.63;;;;;;;;;;5003707;28;20098;-75
2023/07/08 14:35:16;;;;;;;4.70;1.65;;;;;;;;;;5003026;28;20054;-74
2023/07/08 14:37:41;;;;;;;3.17;1.80;;;;;;;;;;5002746;28;20045;-73
2023/07/08 14:40:33;;;;;;;2.88;1.65;;;;;;;;;;4999641;28;20026;-75
2023/07/08 14:43:02;;;;;;;2.58;1.42;;;;;;;;;;5002236;28;20034;-75
2023/07/08 14:45:30;;;;;;;4.07;1.58;;;;;;;;;;5001971;28;20058;-75
2023/07/08 14:47:55;;;;;;;5.57;1.58;;;;;;;;;;5001805;28;20030;-75
2023/07/08 14:50:21;;;;;;;3.65;1.90;;;;;;;;;;5001531;28;20378;-71
2023/07/08 14:52:47;;;;;;;2.72;1.40;;;;;;;;;;5002935;28;20033;-74
2023/07/08 14:55:12;;;;;;;2.40;1.30;;;;;;;;;;5002923;28;20037;-75
2023/07/08 14:57:46;;;;;;;3.92;1.85;;;;;;;;;;5000654;28;20030;-74